Cookeville, TN

1:58 PM CDT on August 29, 2015 (GMT -0500)
Forrest Cove Ln and Forrest Rd | | Change Station
CLOSE
Current Station
Personal Weather Station
Location: Cookeville, TN
Elevation: 1079 ft
Nearby Weather Stations

Elev 1079 ft 36.20 °N, 85.52 °W | Updated 26 seconds ago

Partly Cloudy
Partly Cloudy
87.4 °F
Feels Like 92 °F
N
2.5
Wind Variable Wind from NNE
Gusts 6.5 mph

Today
High -- | Low -- °F
--% Chance of Precip.
Yesterday
High -- | Low -- °F
Precip. -- in
6:11 AM 7:14 PM
Full, 100% visible
Pressure 30.12 in
Visibility 10.0 miles
Clouds Few 4500 ft
Scattered Clouds 7000 ft
Heat Index 92 °F
Dew Point 71 °F
Humidity 55%
Rainfall 0.00 in
Snow Depth Not available.
UV 8 out of 12
Pollen 10.00 out of 12
Air Quality Not available.
Flu Activity Not available.
METAR KSRB 291855Z AUTO 18007KT 10SM FEW045 SCT070 30/22 A3012 RMK
Pressure 30.12 in
Visibility 10.0 miles
Clouds Few 4500 ft
Scattered Clouds 7000 ft
Heat Index 92 °F
Dew Point 71 °F
Humidity 55%
Rainfall 0.00 in
Snow Depth Not available.
UV 8 out of 12
Pollen 10.00 out of 12
Air Quality Not available.
Flu Activity Not available.
METAR KSRB 291855Z AUTO 18007KT 10SM FEW045 SCT070 30/22 A3012 RMK

10-Day Weather Forecast

×

Almanac

Astronomy

Aug. 29, 2015 Rise Set
Actual Time
Civil Twilight
Nautical Twilight
Astronomical Twilight
Moon
Length of Visible Light
Length of Day
Tomorrow will be .
, % of the Moon is Illuminated

Today's Extremes

State Highs State Lows

Community

WunderPhotos

Upload Photos

1,850,764 photos uploaded!

WunderBlogs® & News

Nearby

Air Quality

  Air Quality AQ Index Pollutant
Not available.

Snow Depth

Station Depth Elevation

Earthquake Activity

City Distance Mag. Time & Date
Minimum magnitude displayed is 2.5.

Coastal Water Temperatures

Place Temperature

Stations

Nearby Weather Stations

Station Location Temp. Windchill Dew Point Humidity Wind Precip. Elev Updated Type